Mountain Village, CO

10:28 AM MDT on September 05, 2015 (GMT -0600)
CODOT | | Change Station
CLOSE
Current Station
Personal Weather Station
Location: Telluride, CO
Elevation: 8911 ft
Nearby Weather Stations

Elev 8911 ft 37.94 °N, 107.88 °W | Updated 55 minutes ago

Overcast
Overcast
50.0 °F
Feels Like 50.0 °F
N
1.0
Wind Variable Wind from South
Gusts 4.0 mph

Today
High -- | Low -- °F
--% Chance of Precip.
Yesterday
High -- | Low -- °F
Precip. -- in
6:44 AM 7:35 PM
Waning Gibbous, 47% visible
Pressure 30.37 in
Visibility 10.0 miles
Clouds Scattered Clouds 3800 ft
Mostly Cloudy 5000 ft
Overcast 7000 ft
Dew Point 49.0 °F
Humidity 95%
Rainfall in
Snow Depth Not available.
UV 2 out of 12
Pollen 5.90 out of 12
Air Quality Not available.
Flu Activity Not available.
METAR KTEX 051615Z AUTO 00000KT 10SM SCT038 BKN050 OVC070 12/10 A3037 RMK AO2 T01160096
Pressure 30.37 in
Visibility 10.0 miles
Clouds Scattered Clouds 3800 ft
Mostly Cloudy 5000 ft
Overcast 7000 ft
Dew Point 49.0 °F
Humidity 95%
Rainfall in
Snow Depth Not available.
UV 2 out of 12
Pollen 5.90 out of 12
Air Quality Not available.
Flu Activity Not available.
METAR KTEX 051615Z AUTO 00000KT 10SM SCT038 BKN050 OVC070 12/10 A3037 RMK AO2 T01160096

10-Day Weather Forecast

×

Almanac

Astronomy

Sep. 05, 2015 Rise Set
Actual Time
Civil Twilight
Nautical Twilight
Astronomical Twilight
Moon
Length of Visible Light
Length of Day
Tomorrow will be .
, % of the Moon is Illuminated

Today's Extremes

State Highs State Lows

Community

WunderPhotos

Upload Photos

1,852,495 photos uploaded!

WunderBlogs® & News

Nearby

Air Quality

  Air Quality AQ Index Pollutant
Not available.

Snow Depth

Station Depth Elevation

Earthquake Activity

City Distance Mag. Time & Date
Minimum magnitude displayed is 2.5.

Coastal Water Temperatures

Place Temperature

Stations

Nearby Weather Stations

Station Location Temp. Windchill Dew Point Humidity Wind Precip. Elev Updated Type